Terminal Aerodrome Forecast
Issued by NWS Pocatello, ID

Home | Current Version | Previous Version | Text Only | Print | Product List | Glossary On
Versions: 1 2 3 4 5 6 7 8 9 10 11 12 13 14 15 16 17 18 19 20
000
FTUS45 KPIH 191700
TAFPIH
TAF
KPIH 191739Z 1918/2018 VRB04KT P6SM SCT200
     FM191900 26013KT P6SM FEW050 BKN150
     FM200200 20008KT P6SM SCT060 BKN100
     FM200900 21015G25KT P6SM BKN110 BKN180
     FM201500 24022G32KT P6SM FEW180=

USA.gov is the U.S. government's official web portal to all federal, state and local government web resources and services.